createdAt,value
2017-10-11T00:04:59.417Z,96157
2017-10-11T00:10:28.325Z,96154
2017-10-11T00:15:56.480Z,96155
2017-10-11T00:21:24.650Z,96160
2017-10-11T00:26:52.811Z,96165
2017-10-11T00:32:20.938Z,96160
2017-10-11T00:37:49.082Z,96154
2017-10-11T00:43:17.305Z,96154
2017-10-11T00:48:45.455Z,96156
2017-10-11T00:54:13.612Z,96152
2017-10-11T00:59:41.784Z,96153
2017-10-11T01:05:09.916Z,96147
2017-10-11T01:10:38.068Z,96144
2017-10-11T01:16:06.198Z,96151
2017-10-11T01:21:34.327Z,96141
2017-10-11T01:27:02.484Z,96145
2017-10-11T01:32:30.626Z,96141
2017-10-11T01:37:58.780Z,96141
2017-10-11T01:43:26.950Z,96140
2017-10-11T01:48:55.125Z,96134
2017-10-11T01:54:24.021Z,96137
2017-10-11T01:59:52.948Z,96127
2017-10-11T02:05:21.507Z,96137
2017-10-11T02:10:49.651Z,96134
2017-10-11T02:16:17.777Z,96136
2017-10-11T02:21:46.690Z,96138
2017-10-11T02:27:14.843Z,96129
2017-10-11T02:32:42.982Z,96128
2017-10-11T02:38:11.092Z,96127
2017-10-11T02:43:39.223Z,96129
2017-10-11T02:49:07.358Z,96123
2017-10-11T02:54:35.487Z,96131
2017-10-11T03:00:03.609Z,96123
2017-10-11T03:05:31.735Z,96121
2017-10-11T03:10:59.868Z,96118
2017-10-11T03:16:28.755Z,96115
2017-10-11T03:21:56.903Z,96116
2017-10-11T03:27:25.853Z,96107
2017-10-11T03:32:53.992Z,96115
2017-10-11T03:38:22.140Z,96120
2017-10-11T03:43:50.275Z,96118
2017-10-11T03:49:18.415Z,96115
2017-10-11T03:54:47.314Z,96104
2017-10-11T04:00:15.447Z,96109
2017-10-11T04:05:43.567Z,96112
2017-10-11T04:11:11.705Z,96106
2017-10-11T04:16:39.820Z,96108
2017-10-11T04:22:07.941Z,96100
2017-10-11T04:27:36.144Z,96098
2017-10-11T04:33:04.404Z,96109
2017-10-11T04:38:32.605Z,96106
2017-10-11T04:44:00.708Z,96100
2017-10-11T04:49:29.620Z,96103
2017-10-11T04:55:00.898Z,96097
2017-10-11T05:00:29.035Z,96105
2017-10-11T05:05:58.290Z,96105
2017-10-11T05:11:26.550Z,96101
2017-10-11T05:16:54.662Z,96107
2017-10-11T05:22:23.554Z,96113
2017-10-11T05:27:52.447Z,96119
2017-10-11T05:33:20.582Z,96112
2017-10-11T05:38:49.469Z,96113
2017-10-11T05:44:17.592Z,96116
2017-10-11T05:49:45.721Z,96132
2017-10-11T05:55:13.832Z,96122
2017-10-11T06:00:41.967Z,96130
2017-10-11T06:06:10.867Z,96127
2017-10-11T06:11:39.007Z,96127
2017-10-11T06:17:07.150Z,96128
2017-10-11T06:22:35.270Z,96129
2017-10-11T06:28:03.394Z,96133
2017-10-11T06:33:31.512Z,96136
2017-10-11T06:38:59.666Z,96146
2017-10-11T06:44:27.812Z,96140
2017-10-11T06:49:55.966Z,96142
2017-10-11T06:55:24.107Z,96149
2017-10-11T07:00:52.251Z,96156
2017-10-11T07:06:20.398Z,96170
2017-10-11T07:11:48.535Z,96167
2017-10-11T07:17:17.436Z,96165
2017-10-11T07:22:45.571Z,96172
2017-10-11T07:28:14.466Z,96167
2017-10-11T07:33:42.621Z,96173
2017-10-11T07:39:11.536Z,96177
2017-10-11T07:44:39.676Z,96175
2017-10-11T07:50:07.872Z,96177
2017-10-11T07:55:36.022Z,96187
2017-10-11T08:01:04.158Z,96179
2017-10-11T08:06:32.327Z,96179
2017-10-11T08:12:00.462Z,96176
2017-10-11T08:17:28.617Z,96179
2017-10-11T08:22:56.765Z,96191
2017-10-11T08:28:24.915Z,96182
2017-10-11T08:33:53.836Z,96188
2017-10-11T08:39:22.543Z,96182
2017-10-11T08:44:51.474Z,96191
2017-10-11T08:50:19.597Z,96185
2017-10-11T08:55:48.503Z,96175
2017-10-11T09:01:16.653Z,96180
2017-10-11T09:06:44.816Z,96182
2017-10-11T09:12:12.958Z,96184
2017-10-11T09:17:44.950Z,96183
2017-10-11T09:23:13.105Z,96180
2017-10-11T09:28:41.265Z,96184
2017-10-11T09:34:09.405Z,96186
2017-10-11T09:39:37.550Z,96174
2017-10-11T09:45:05.708Z,96176
2017-10-11T09:50:33.837Z,96169
2017-10-11T09:56:01.982Z,96173
2017-10-11T10:01:30.877Z,96168
2017-10-11T10:06:59.021Z,96165
2017-10-11T10:12:27.936Z,96160
2017-10-11T10:17:56.100Z,96152
2017-10-11T10:23:24.306Z,96152
2017-10-11T10:28:52.443Z,96155
2017-10-11T10:34:20.621Z,96150
2017-10-11T10:39:48.794Z,96153
2017-10-11T10:45:16.925Z,96162
2017-10-11T10:50:45.070Z,96144
2017-10-11T10:56:13.220Z,96145
2017-10-11T11:01:41.368Z,96137
2017-10-11T11:07:09.536Z,96139
2017-10-11T11:12:37.695Z,96129
2017-10-11T11:18:05.857Z,96129
2017-10-11T11:23:34.006Z,96119
2017-10-11T11:29:02.154Z,96111
2017-10-11T11:34:30.312Z,96110
2017-10-11T11:39:58.452Z,96108
2017-10-11T11:45:26.608Z,96105
2017-10-11T11:50:54.776Z,96099
2017-10-11T11:56:22.913Z,96089
2017-10-11T12:01:51.073Z,96094
2017-10-11T12:07:19.230Z,96087
2017-10-11T12:12:47.392Z,96082
2017-10-11T12:18:15.557Z,96079
2017-10-11T12:23:44.466Z,96070
2017-10-11T12:29:12.600Z,96076
2017-10-11T12:34:40.751Z,96074
2017-10-11T12:40:08.886Z,96069
2017-10-11T12:45:37.029Z,96071
2017-10-11T12:51:05.961Z,96063
2017-10-11T12:56:34.114Z,96058
2017-10-11T13:02:06.083Z,96060
2017-10-11T13:07:34.621Z,96047
2017-10-11T13:13:02.759Z,96040
2017-10-11T13:18:30.896Z,96039
2017-10-11T13:23:59.083Z,96034
2017-10-11T13:29:27.238Z,96027
2017-10-11T13:34:55.383Z,96024
2017-10-11T13:40:23.522Z,96023
2017-10-11T13:45:52.433Z,96020
2017-10-11T13:51:20.586Z,96005
2017-10-11T13:56:48.752Z,96001
2017-10-11T14:02:16.902Z,95995
2017-10-11T14:07:45.049Z,95983
2017-10-11T14:13:13.984Z,95952
2017-10-11T14:18:42.131Z,95973
2017-10-11T14:24:10.266Z,95989
2017-10-11T14:29:38.409Z,95989
2017-10-11T14:35:06.544Z,95981
2017-10-11T14:40:34.685Z,95964
2017-10-11T14:46:02.853Z,95998
2017-10-11T14:51:31.011Z,95990
2017-10-11T14:56:59.919Z,95998
2017-10-11T15:02:28.069Z,95991
2017-10-11T15:07:56.253Z,95984
2017-10-11T15:13:24.431Z,96007
2017-10-11T15:18:52.584Z,96010
2017-10-11T15:24:20.763Z,96005
2017-10-11T15:29:48.915Z,96000
2017-10-11T15:35:17.062Z,95994
2017-10-11T15:40:45.217Z,96005
2017-10-11T15:46:13.366Z,96004
2017-10-11T15:51:41.539Z,96007
2017-10-11T15:57:09.680Z,96008
2017-10-11T16:02:37.848Z,96018
2017-10-11T16:08:05.976Z,96017
2017-10-11T16:13:34.126Z,96021
2017-10-11T16:19:02.284Z,96011
2017-10-11T16:24:30.426Z,96017
2017-10-11T16:29:58.595Z,96011
2017-10-11T16:35:26.738Z,96003
2017-10-11T16:40:54.883Z,96009
2017-10-11T16:46:23.047Z,96008
2017-10-11T16:51:52.018Z,96004
2017-10-11T16:57:20.220Z,96002
2017-10-11T17:02:48.398Z,95999
2017-10-11T17:08:16.561Z,96004
2017-10-11T17:13:44.706Z,96009
2017-10-11T17:19:12.859Z,96001
2017-10-11T17:24:41.044Z,95999
2017-10-11T17:30:09.228Z,95999
2017-10-11T17:35:38.134Z,96009
2017-10-11T17:41:06.309Z,96006
2017-10-11T17:46:34.518Z,96005
2017-10-11T17:52:04.452Z,96012
2017-10-11T17:57:33.728Z,96015
2017-10-11T18:03:02.018Z,96013
2017-10-11T18:08:30.178Z,96018
2017-10-11T18:13:58.350Z,96017
2017-10-11T18:19:26.544Z,96022
2017-10-11T18:24:54.771Z,96020
2017-10-11T18:30:22.927Z,96017
2017-10-11T18:35:51.100Z,96017
2017-10-11T18:41:19.241Z,96029
2017-10-11T18:46:47.385Z,96028
2017-10-11T18:52:15.537Z,96026
2017-10-11T18:57:43.710Z,96024
2017-10-11T19:03:11.894Z,96022
2017-10-11T19:08:40.068Z,96029
2017-10-11T19:14:10.682Z,96027
2017-10-11T19:19:40.432Z,96037
2017-10-11T19:25:08.585Z,96036
2017-10-11T19:30:36.726Z,96040
2017-10-11T19:36:05.342Z,96030
2017-10-11T19:41:33.487Z,96040
2017-10-11T19:47:01.650Z,96043
2017-10-11T19:52:29.817Z,96046
2017-10-11T19:57:59.903Z,96051
2017-10-11T20:03:28.103Z,96056
2017-10-11T20:08:56.504Z,96061
2017-10-11T20:14:24.691Z,96061
2017-10-11T20:19:52.957Z,96068
2017-10-11T20:25:21.151Z,96059
2017-10-11T20:30:50.096Z,96073
2017-10-11T20:36:18.365Z,96069
2017-10-11T20:41:46.547Z,96072
2017-10-11T20:47:14.682Z,96077
2017-10-11T20:52:42.818Z,96077
2017-10-11T20:58:10.971Z,96076
2017-10-11T21:03:39.118Z,96078
2017-10-11T21:09:07.423Z,96074
2017-10-11T21:14:36.452Z,96076
2017-10-11T21:20:04.695Z,96075
2017-10-11T21:25:32.955Z,96073
2017-10-11T21:31:01.101Z,96071
2017-10-11T21:36:29.270Z,96068
2017-10-11T21:41:57.414Z,96064
2017-10-11T21:47:25.741Z,96060
2017-10-11T21:52:53.931Z,96070
2017-10-11T21:58:22.100Z,96069
2017-10-11T22:03:50.362Z,96060
2017-10-11T22:09:18.492Z,96061
2017-10-11T22:14:47.542Z,96069
2017-10-11T22:20:16.716Z,96070
2017-10-11T22:25:44.874Z,96065
2017-10-11T22:31:13.875Z,96064
2017-10-11T22:36:42.776Z,96064
2017-10-11T22:42:10.924Z,96065
2017-10-11T22:47:39.085Z,96068
2017-10-11T22:53:07.215Z,96063
2017-10-11T22:58:35.372Z,96052
2017-10-11T23:04:03.511Z,96059
2017-10-11T23:09:31.657Z,96064
2017-10-11T23:14:59.796Z,96061
2017-10-11T23:20:27.947Z,96057
2017-10-11T23:25:56.101Z,96059
2017-10-11T23:31:24.256Z,96065
2017-10-11T23:36:52.409Z,96069
2017-10-11T23:42:20.557Z,96068
2017-10-11T23:47:48.695Z,96074
2017-10-11T23:53:17.603Z,96069
2017-10-11T23:58:45.755Z,96062
